sensor_id;sensor_type;location;lat;lon;timestamp;pressure;altitude;pressure_sealevel;temperature;humidity
66801;BME280;53703;50.326;19.122;2023-08-30T00:00:56;97630.52;;;21.67;69.93
66801;BME280;53703;50.326;19.122;2023-08-30T00:03:50;97638.20;;;21.73;69.90
66801;BME280;53703;50.326;19.122;2023-08-30T00:06:44;97644.64;;;21.75;69.68
66801;BME280;53703;50.326;19.122;2023-08-30T00:09:38;97641.45;;;21.79;69.43
66801;BME280;53703;50.326;19.122;2023-08-30T00:12:32;97621.55;;;21.75;69.71
66801;BME280;53703;50.326;19.122;2023-08-30T00:15:27;97612.98;;;21.75;69.59
66801;BME280;53703;50.326;19.122;2023-08-30T00:18:21;97608.30;;;21.74;69.60
66801;BME280;53703;50.326;19.122;2023-08-30T00:21:16;97607.50;;;21.76;69.45
66801;BME280;53703;50.326;19.122;2023-08-30T00:24:10;97599.58;;;21.73;69.57
66801;BME280;53703;50.326;19.122;2023-08-30T00:27:05;97597.18;;;21.68;69.63
66801;BME280;53703;50.326;19.122;2023-08-30T00:29:59;97594.09;;;21.71;69.37
66801;BME280;53703;50.326;19.122;2023-08-30T00:32:53;97592.68;;;21.71;69.44
66801;BME280;53703;50.326;19.122;2023-08-30T00:35:54;97591.80;;;21.74;69.11
66801;BME280;53703;50.326;19.122;2023-08-30T00:38:49;97594.66;;;21.75;69.04
66801;BME280;53703;50.326;19.122;2023-08-30T00:41:43;97595.99;;;21.76;68.95
66801;BME280;53703;50.326;19.122;2023-08-30T00:44:37;97594.80;;;21.76;68.99
66801;BME280;53703;50.326;19.122;2023-08-30T00:47:33;97594.00;;;21.76;69.07
66801;BME280;53703;50.326;19.122;2023-08-30T00:50:28;97596.56;;;21.75;68.98
66801;BME280;53703;50.326;19.122;2023-08-30T00:53:22;97591.41;;;21.74;68.90
66801;BME280;53703;50.326;19.122;2023-08-30T00:56:17;97577.03;;;21.76;68.86
66801;BME280;53703;50.326;19.122;2023-08-30T00:59:11;97576.16;;;21.78;68.74
66801;BME280;53703;50.326;19.122;2023-08-30T01:02:06;97576.16;;;21.75;68.81
66801;BME280;53703;50.326;19.122;2023-08-30T01:05:00;97570.94;;;21.73;68.92
66801;BME280;53703;50.326;19.122;2023-08-30T01:07:55;97568.95;;;21.73;68.88
66801;BME280;53703;50.326;19.122;2023-08-30T01:10:59;97565.69;;;21.75;68.84
66801;BME280;53703;50.326;19.122;2023-08-30T01:14:03;97566.24;;;21.76;68.75
66801;BME280;53703;50.326;19.122;2023-08-30T01:16:59;97567.52;;;21.72;68.99
66801;BME280;53703;50.326;19.122;2023-08-30T01:20:00;97568.16;;;21.72;68.87
66801;BME280;53703;50.326;19.122;2023-08-30T01:23:01;97574.27;;;21.73;68.73
66801;BME280;53703;50.326;19.122;2023-08-30T01:26:07;97575.45;;;21.76;68.63
66801;BME280;53703;50.326;19.122;2023-08-30T01:29:03;97574.19;;;21.72;68.82
66801;BME280;53703;50.326;19.122;2023-08-30T01:31:58;97572.98;;;21.70;68.88
66801;BME280;53703;50.326;19.122;2023-08-30T01:34:52;97576.48;;;21.71;68.84
66801;BME280;53703;50.326;19.122;2023-08-30T01:37:47;97592.27;;;21.74;68.60
66801;BME280;53703;50.326;19.122;2023-08-30T01:40:43;97595.29;;;21.73;68.60
66801;BME280;53703;50.326;19.122;2023-08-30T01:43:38;97587.98;;;21.71;68.73
66801;BME280;53703;50.326;19.122;2023-08-30T01:46:33;97584.64;;;21.69;68.87
66801;BME280;53703;50.326;19.122;2023-08-30T01:49:31;97584.33;;;21.69;68.83
66801;BME280;53703;50.326;19.122;2023-08-30T01:52:26;97585.92;;;21.72;68.64
66801;BME280;53703;50.326;19.122;2023-08-30T01:55:22;97579.17;;;21.70;68.83
66801;BME280;53703;50.326;19.122;2023-08-30T01:58:16;97573.94;;;21.66;68.88
66801;BME280;53703;50.326;19.122;2023-08-30T02:01:11;97562.37;;;21.64;68.86
66801;BME280;53703;50.326;19.122;2023-08-30T02:04:06;97561.48;;;21.66;68.87
66801;BME280;53703;50.326;19.122;2023-08-30T02:07:04;97561.08;;;21.68;68.65
66801;BME280;53703;50.326;19.122;2023-08-30T02:13:47;97574.41;;;21.68;68.62
66801;BME280;53703;50.326;19.122;2023-08-30T02:16:57;97575.45;;;21.68;68.53
66801;BME280;53703;50.326;19.122;2023-08-30T02:20:00;97575.84;;;21.66;68.67
66801;BME280;53703;50.326;19.122;2023-08-30T02:23:01;97579.65;;;21.66;68.51
66801;BME280;53703;50.326;19.122;2023-08-30T02:26:06;97583.85;;;21.67;68.55
66801;BME280;53703;50.326;19.122;2023-08-30T02:29:01;97580.52;;;21.67;68.45
66801;BME280;53703;50.326;19.122;2023-08-30T02:32:00;97583.70;;;21.66;68.54
66801;BME280;53703;50.326;19.122;2023-08-30T02:35:05;97586.71;;;21.67;68.38
66801;BME280;53703;50.326;19.122;2023-08-30T02:37:59;97589.88;;;21.69;68.22
66801;BME280;53703;50.326;19.122;2023-08-30T02:40:58;97593.69;;;21.68;68.26
66801;BME280;53703;50.326;19.122;2023-08-30T02:43:52;97580.20;;;21.69;68.22
66801;BME280;53703;50.326;19.122;2023-08-30T02:46:46;97573.39;;;21.68;68.29
66801;BME280;53703;50.326;19.122;2023-08-30T02:49:40;97562.59;;;21.67;68.15
66801;BME280;53703;50.326;19.122;2023-08-30T02:52:34;97564.27;;;21.64;68.39
66801;BME280;53703;50.326;19.122;2023-08-30T02:55:28;97565.45;;;21.65;68.17
66801;BME280;53703;50.326;19.122;2023-08-30T02:58:22;97564.97;;;21.67;68.21
66801;BME280;53703;50.326;19.122;2023-08-30T03:01:16;97558.16;;;21.65;68.16
66801;BME280;53703;50.326;19.122;2023-08-30T03:04:10;97549.61;;;21.60;68.21
66801;BME280;53703;50.326;19.122;2023-08-30T03:07:04;97543.90;;;21.60;68.25
66801;BME280;53703;50.326;19.122;2023-08-30T03:09:58;97551.10;;;21.63;68.19
66801;BME280;53703;50.326;19.122;2023-08-30T03:12:52;97547.93;;;21.62;68.17
66801;BME280;53703;50.326;19.122;2023-08-30T03:15:45;97556.02;;;21.61;68.08
66801;BME280;53703;50.326;19.122;2023-08-30T03:18:39;97556.41;;;21.62;68.07
66801;BME280;53703;50.326;19.122;2023-08-30T03:21:33;97554.12;;;21.60;67.95
66801;BME280;53703;50.326;19.122;2023-08-30T03:24:27;97554.84;;;21.57;68.02
66801;BME280;53703;50.326;19.122;2023-08-30T03:27:21;97558.09;;;21.59;67.95
66801;BME280;53703;50.326;19.122;2023-08-30T03:30:17;97567.14;;;21.59;67.83
66801;BME280;53703;50.326;19.122;2023-08-30T03:33:11;97570.23;;;21.58;67.86
66801;BME280;53703;50.326;19.122;2023-08-30T03:36:06;97573.72;;;21.57;68.00
66801;BME280;53703;50.326;19.122;2023-08-30T03:39:00;97570.86;;;21.58;67.84
66801;BME280;53703;50.326;19.122;2023-08-30T03:41:55;97577.14;;;21.52;67.84
66801;BME280;53703;50.326;19.122;2023-08-30T03:44:49;97576.20;;;21.46;67.94
66801;BME280;53703;50.326;19.122;2023-08-30T03:47:43;97567.56;;;21.43;67.89
66801;BME280;53703;50.326;19.122;2023-08-30T03:50:37;97571.04;;;21.50;67.88
66801;BME280;53703;50.326;19.122;2023-08-30T03:53:31;97573.80;;;21.55;67.82
66801;BME280;53703;50.326;19.122;2023-08-30T03:56:25;97582.67;;;21.56;67.87
66801;BME280;53703;50.326;19.122;2023-08-30T03:59:19;97583.16;;;21.57;67.86
66801;BME280;53703;50.326;19.122;2023-08-30T04:02:18;97586.10;;;21.57;67.72
66801;BME280;53703;50.326;19.122;2023-08-30T04:05:13;97583.23;;;21.55;67.80
66801;BME280;53703;50.326;19.122;2023-08-30T04:08:08;97581.35;;;21.55;67.99
66801;BME280;53703;50.326;19.122;2023-08-30T04:11:03;97582.70;;;21.54;67.81
66801;BME280;53703;50.326;19.122;2023-08-30T04:13:57;97584.73;;;21.56;67.73
66801;BME280;53703;50.326;19.122;2023-08-30T04:16:51;97580.79;;;21.54;67.84
66801;BME280;53703;50.326;19.122;2023-08-30T04:19:45;97584.20;;;21.57;67.70
66801;BME280;53703;50.326;19.122;2023-08-30T04:22:40;97583.48;;;21.55;67.71
66801;BME280;53703;50.326;19.122;2023-08-30T04:25:35;97585.16;;;21.50;67.81
66801;BME280;53703;50.326;19.122;2023-08-30T04:28:29;97585.15;;;21.51;67.73
66801;BME280;53703;50.326;19.122;2023-08-30T04:31:23;97591.35;;;21.51;67.72
66801;BME280;53703;50.326;19.122;2023-08-30T04:34:17;97591.51;;;21.48;67.84
66801;BME280;53703;50.326;19.122;2023-08-30T04:37:11;97592.95;;;21.47;67.67
66801;BME280;53703;50.326;19.122;2023-08-30T04:40:08;97582.95;;;21.43;67.85
66801;BME280;53703;50.326;19.122;2023-08-30T04:43:02;97580.34;;;21.45;67.72
66801;BME280;53703;50.326;19.122;2023-08-30T04:45:57;97576.45;;;21.44;67.40
66801;BME280;53703;50.326;19.122;2023-08-30T04:48:51;97578.19;;;21.41;67.58
66801;BME280;53703;50.326;19.122;2023-08-30T04:51:45;97584.54;;;21.46;67.63
66801;BME280;53703;50.326;19.122;2023-08-30T04:54:38;97585.96;;;21.44;67.53
66801;BME280;53703;50.326;19.122;2023-08-30T04:57:34;97582.64;;;21.40;67.54
66801;BME280;53703;50.326;19.122;2023-08-30T05:00:28;97579.30;;;21.42;67.52
66801;BME280;53703;50.326;19.122;2023-08-30T05:03:23;97579.05;;;21.45;67.47
66801;BME280;53703;50.326;19.122;2023-08-30T05:06:17;97574.46;;;21.44;67.47
66801;BME280;53703;50.326;19.122;2023-08-30T05:09:11;97569.16;;;21.42;67.37
66801;BME280;53703;50.326;19.122;2023-08-30T05:12:06;97572.96;;;21.43;67.41
66801;BME280;53703;50.326;19.122;2023-08-30T05:15:01;97576.44;;;21.46;67.38
66801;BME280;53703;50.326;19.122;2023-08-30T05:17:56;97581.84;;;21.45;67.41
66801;BME280;53703;50.326;19.122;2023-08-30T05:20:50;97579.61;;;21.46;67.33
66801;BME280;53703;50.326;19.122;2023-08-30T05:23:44;97575.17;;;21.44;67.38
66801;BME280;53703;50.326;19.122;2023-08-30T05:26:39;97579.30;;;21.42;67.39
66801;BME280;53703;50.326;19.122;2023-08-30T05:29:33;97579.63;;;21.37;67.39
66801;BME280;53703;50.326;19.122;2023-08-30T05:32:27;97581.38;;;21.36;67.53
66801;BME280;53703;50.326;19.122;2023-08-30T05:35:21;97580.73;;;21.43;67.32
66801;BME280;53703;50.326;19.122;2023-08-30T05:38:15;97586.27;;;21.41;67.36
66801;BME280;53703;50.326;19.122;2023-08-30T05:41:09;97583.83;;;21.38;67.36
66801;BME280;53703;50.326;19.122;2023-08-30T05:44:05;97577.73;;;21.34;67.37
66801;BME280;53703;50.326;19.122;2023-08-30T05:47:01;97573.69;;;21.34;67.27
66801;BME280;53703;50.326;19.122;2023-08-30T05:49:55;97574.80;;;21.37;67.34
66801;BME280;53703;50.326;19.122;2023-08-30T05:52:49;97586.91;;;21.41;67.18
66801;BME280;53703;50.326;19.122;2023-08-30T05:55:44;97593.41;;;21.37;67.21
66801;BME280;53703;50.326;19.122;2023-08-30T05:58:38;97592.95;;;21.33;67.11
66801;BME280;53703;50.326;19.122;2023-08-30T06:01:33;97592.08;;;21.35;67.25
66801;BME280;53703;50.326;19.122;2023-08-30T06:04:28;97596.11;;;21.35;67.01
66801;BME280;53703;50.326;19.122;2023-08-30T06:07:22;97603.50;;;21.35;67.08
66801;BME280;53703;50.326;19.122;2023-08-30T06:10:17;97608.41;;;21.31;67.17
66801;BME280;53703;50.326;19.122;2023-08-30T06:13:11;97613.02;;;21.33;67.14
66801;BME280;53703;50.326;19.122;2023-08-30T06:16:05;97612.14;;;21.33;67.05
66801;BME280;53703;50.326;19.122;2023-08-30T06:19:00;97614.52;;;21.36;67.22
66801;BME280;53703;50.326;19.122;2023-08-30T06:21:54;97615.95;;;21.33;67.01
66801;BME280;53703;50.326;19.122;2023-08-30T06:24:48;97618.24;;;21.35;67.18
66801;BME280;53703;50.326;19.122;2023-08-30T06:27:55;97623.95;;;21.31;67.09
66801;BME280;53703;50.326;19.122;2023-08-30T06:30:49;97630.61;;;21.29;67.07
66801;BME280;53703;50.326;19.122;2023-08-30T06:33:43;97628.08;;;21.32;66.97
66801;BME280;53703;50.326;19.122;2023-08-30T06:36:37;97628.72;;;21.28;67.05
66801;BME280;53703;50.326;19.122;2023-08-30T06:39:36;97623.55;;;21.29;66.99
66801;BME280;53703;50.326;19.122;2023-08-30T06:42:30;97619.92;;;21.29;67.01
66801;BME280;53703;50.326;19.122;2023-08-30T06:45:24;97619.11;;;21.31;67.04
66801;BME280;53703;50.326;19.122;2023-08-30T06:48:18;97615.48;;;21.29;67.13
66801;BME280;53703;50.326;19.122;2023-08-30T06:51:12;97618.09;;;21.27;67.06
66801;BME280;53703;50.326;19.122;2023-08-30T06:54:07;97619.35;;;21.31;67.11
66801;BME280;53703;50.326;19.122;2023-08-30T06:57:02;97623.40;;;21.32;67.08
66801;BME280;53703;50.326;19.122;2023-08-30T06:59:58;97627.52;;;21.29;67.19
66801;BME280;53703;50.326;19.122;2023-08-30T07:03:00;97629.51;;;21.27;67.16
66801;BME280;53703;50.326;19.122;2023-08-30T07:05:55;97627.93;;;21.19;67.20
66801;BME280;53703;50.326;19.122;2023-08-30T07:08:49;97633.95;;;21.18;67.33
66801;BME280;53703;50.326;19.122;2023-08-30T07:11:45;97644.10;;;21.22;67.18
66801;BME280;53703;50.326;19.122;2023-08-30T07:14:39;97651.00;;;21.21;67.07
66801;BME280;53703;50.326;19.122;2023-08-30T07:17:33;97655.75;;;21.23;67.10
66801;BME280;53703;50.326;19.122;2023-08-30T07:20:44;97656.39;;;21.21;67.08
66801;BME280;53703;50.326;19.122;2023-08-30T07:23:38;97661.38;;;21.18;67.23
66801;BME280;53703;50.326;19.122;2023-08-30T07:26:32;97664.63;;;21.22;67.14
66801;BME280;53703;50.326;19.122;2023-08-30T07:29:26;97661.61;;;21.18;67.02
66801;BME280;53703;50.326;19.122;2023-08-30T07:32:20;97657.80;;;21.20;66.94
66801;BME280;53703;50.326;19.122;2023-08-30T07:35:13;97657.41;;;21.19;67.01
66801;BME280;53703;50.326;19.122;2023-08-30T07:38:07;97661.77;;;21.16;67.18
66801;BME280;53703;50.326;19.122;2023-08-30T07:41:02;97658.42;;;20.95;67.70
66801;BME280;53703;50.326;19.122;2023-08-30T07:43:56;97655.98;;;21.12;67.47
66801;BME280;53703;50.326;19.122;2023-08-30T07:46:50;97662.09;;;21.15;67.31
66801;BME280;53703;50.326;19.122;2023-08-30T07:49:44;97663.67;;;21.15;67.87
66801;BME280;53703;50.326;19.122;2023-08-30T07:52:38;97664.39;;;21.23;67.47
66801;BME280;53703;50.326;19.122;2023-08-30T07:55:38;97665.34;;;21.26;67.60
66801;BME280;53703;50.326;19.122;2023-08-30T07:58:32;97669.30;;;21.29;67.59
66801;BME280;53703;50.326;19.122;2023-08-30T08:01:26;97673.35;;;21.28;67.65
66801;BME280;53703;50.326;19.122;2023-08-30T08:04:21;97679.05;;;21.26;68.03
66801;BME280;53703;50.326;19.122;2023-08-30T08:07:15;97684.84;;;21.30;67.67
66801;BME280;53703;50.326;19.122;2023-08-30T08:10:10;97687.45;;;21.31;67.55
66801;BME280;53703;50.326;19.122;2023-08-30T08:13:04;97686.66;;;21.32;67.22
66801;BME280;53703;50.326;19.122;2023-08-30T08:15:59;97686.27;;;21.33;67.08
66801;BME280;53703;50.326;19.122;2023-08-30T08:18:53;97696.11;;;21.25;67.48
66801;BME280;53703;50.326;19.122;2023-08-30T08:21:50;97697.77;;;21.22;67.31
66801;BME280;53703;50.326;19.122;2023-08-30T08:24:46;97692.85;;;21.24;67.20
66801;BME280;53703;50.326;19.122;2023-08-30T08:27:40;97686.98;;;21.19;67.11
66801;BME280;53703;50.326;19.122;2023-08-30T08:30:34;97688.73;;;21.20;67.19
66801;BME280;53703;50.326;19.122;2023-08-30T08:33:27;97689.27;;;21.24;67.17
66801;BME280;53703;50.326;19.122;2023-08-30T08:36:21;97688.10;;;21.25;67.11
66801;BME280;53703;50.326;19.122;2023-08-30T08:39:15;97689.61;;;21.26;67.07
66801;BME280;53703;50.326;19.122;2023-08-30T08:42:11;97699.43;;;21.23;66.95
66801;BME280;53703;50.326;19.122;2023-08-30T08:45:11;97702.29;;;21.18;67.01
66801;BME280;53703;50.326;19.122;2023-08-30T08:48:06;97706.64;;;21.17;66.78
66801;BME280;53703;50.326;19.122;2023-08-30T08:51:01;97708.63;;;21.23;66.66
66801;BME280;53703;50.326;19.122;2023-08-30T08:53:58;97711.56;;;21.24;66.93
66801;BME280;53703;50.326;19.122;2023-08-30T08:56:56;97715.36;;;21.29;66.80
66801;BME280;53703;50.326;19.122;2023-08-30T08:59:50;97713.63;;;21.27;66.97
66801;BME280;53703;50.326;19.122;2023-08-30T09:02:44;97716.40;;;21.29;66.82
66801;BME280;53703;50.326;19.122;2023-08-30T09:05:41;97715.84;;;21.31;66.70
66801;BME280;53703;50.326;19.122;2023-08-30T09:08:35;97710.92;;;21.28;66.76
66801;BME280;53703;50.326;19.122;2023-08-30T09:11:29;97712.05;;;21.28;66.73
66801;BME280;53703;50.326;19.122;2023-08-30T09:14:21;97710.06;;;21.24;66.63
66801;BME280;53703;50.326;19.122;2023-08-30T09:17:15;97711.48;;;21.25;66.47
66801;BME280;53703;50.326;19.122;2023-08-30T09:20:12;97716.48;;;21.30;66.44
66801;BME280;53703;50.326;19.122;2023-08-30T09:23:15;97715.69;;;21.31;66.41
66801;BME280;53703;50.326;19.122;2023-08-30T09:26:10;97712.91;;;21.25;66.49
66801;BME280;53703;50.326;19.122;2023-08-30T09:29:08;97714.33;;;21.17;66.36
66801;BME280;53703;50.326;19.122;2023-08-30T09:32:07;97715.91;;;21.31;66.36
66801;BME280;53703;50.326;19.122;2023-08-30T09:35:09;97714.19;;;21.33;66.41
66801;BME280;53703;50.326;19.122;2023-08-30T09:38:03;97717.50;;;21.33;66.92
66801;BME280;53703;50.326;19.122;2023-08-30T09:41:06;97720.28;;;21.31;67.84
66801;BME280;53703;50.326;19.122;2023-08-30T09:44:05;97714.58;;;21.31;68.70
66801;BME280;53703;50.326;19.122;2023-08-30T09:47:14;97715.14;;;21.34;69.18
66801;BME280;53703;50.326;19.122;2023-08-30T09:50:10;97709.89;;;21.32;70.04
66801;BME280;53703;50.326;19.122;2023-08-30T09:53:08;97708.95;;;21.33;69.21
66801;BME280;53703;50.326;19.122;2023-08-30T09:56:04;97711.09;;;21.34;68.64
66801;BME280;53703;50.326;19.122;2023-08-30T09:59:01;97709.83;;;21.39;69.22
66801;BME280;53703;50.326;19.122;2023-08-30T10:01:56;97714.34;;;21.35;70.07
66801;BME280;53703;50.326;19.122;2023-08-30T10:05:17;97712.44;;;21.34;70.45
66801;BME280;53703;50.326;19.122;2023-08-30T10:08:17;97713.07;;;21.36;70.42
66801;BME280;53703;50.326;19.122;2023-08-30T10:11:46;97716.02;;;21.42;68.97
66801;BME280;53703;50.326;19.122;2023-08-30T10:14:47;97722.27;;;21.45;67.70
66801;BME280;53703;50.326;19.122;2023-08-30T10:17:51;97723.63;;;21.46;68.67
66801;BME280;53703;50.326;19.122;2023-08-30T10:20:46;97717.20;;;21.44;68.99
66801;BME280;53703;50.326;19.122;2023-08-30T10:23:41;97715.39;;;21.43;69.08
66801;BME280;53703;50.326;19.122;2023-08-30T10:26:37;97715.55;;;21.46;68.29
66801;BME280;53703;50.326;19.122;2023-08-30T10:29:32;97708.33;;;21.43;67.46
66801;BME280;53703;50.326;19.122;2023-08-30T10:32:26;97707.45;;;21.39;67.16
66801;BME280;53703;50.326;19.122;2023-08-30T10:35:20;97709.59;;;21.36;67.08
66801;BME280;53703;50.326;19.122;2023-08-30T10:38:23;97703.73;;;21.46;67.01
66801;BME280;53703;50.326;19.122;2023-08-30T10:41:34;97700.95;;;21.51;66.81
66801;BME280;53703;50.326;19.122;2023-08-30T10:44:28;97698.80;;;21.54;66.53
66801;BME280;53703;50.326;19.122;2023-08-30T10:47:23;97705.23;;;21.55;66.82
66801;BME280;53703;50.326;19.122;2023-08-30T10:50:18;97708.08;;;21.48;67.26
66801;BME280;53703;50.326;19.122;2023-08-30T10:53:32;97708.17;;;21.47;67.05
66801;BME280;53703;50.326;19.122;2023-08-30T10:56:31;97708.40;;;21.42;66.79
66801;BME280;53703;50.326;19.122;2023-08-30T10:59:29;97710.86;;;21.43;66.61
66801;BME280;53703;50.326;19.122;2023-08-30T11:02:49;97713.16;;;21.37;66.48
66801;BME280;53703;50.326;19.122;2023-08-30T11:05:44;97711.42;;;21.42;66.02
66801;BME280;53703;50.326;19.122;2023-08-30T11:08:38;97708.55;;;21.45;66.09
66801;BME280;53703;50.326;19.122;2023-08-30T11:11:32;97707.21;;;21.45;66.23
66801;BME280;53703;50.326;19.122;2023-08-30T11:14:26;97712.14;;;21.45;66.10
66801;BME280;53703;50.326;19.122;2023-08-30T11:17:21;97714.35;;;21.47;65.90
66801;BME280;53703;50.326;19.122;2023-08-30T11:20:17;97711.10;;;21.46;65.99
66801;BME280;53703;50.326;19.122;2023-08-30T11:23:13;97707.05;;;21.47;65.81
66801;BME280;53703;50.326;19.122;2023-08-30T11:26:08;97703.02;;;21.45;66.04
66801;BME280;53703;50.326;19.122;2023-08-30T11:29:09;97699.52;;;21.45;66.02
66801;BME280;53703;50.326;19.122;2023-08-30T11:32:03;97701.25;;;21.46;65.72
66801;BME280;53703;50.326;19.122;2023-08-30T11:35:00;97700.95;;;21.46;65.61
66801;BME280;53703;50.326;19.122;2023-08-30T11:37:57;97702.92;;;21.45;65.40
66801;BME280;53703;50.326;19.122;2023-08-30T11:40:52;97701.82;;;21.44;65.55
66801;BME280;53703;50.326;19.122;2023-08-30T11:43:48;97702.84;;;21.41;65.44
66801;BME280;53703;50.326;19.122;2023-08-30T11:46:42;97708.17;;;21.39;65.72
66801;BME280;53703;50.326;19.122;2023-08-30T11:49:36;97709.59;;;21.22;65.91
66801;BME280;53703;50.326;19.122;2023-08-30T11:52:32;97717.42;;;21.20;66.02
66801;BME280;53703;50.326;19.122;2023-08-30T11:55:27;97712.05;;;21.36;65.55
66801;BME280;53703;50.326;19.122;2023-08-30T11:58:22;97702.54;;;21.42;65.53
66801;BME280;53703;50.326;19.122;2023-08-30T12:01:16;97701.43;;;21.47;65.62
66801;BME280;53703;50.326;19.122;2023-08-30T12:04:15;97707.70;;;21.47;65.51
66801;BME280;53703;50.326;19.122;2023-08-30T12:07:20;97711.58;;;21.43;65.56
66801;BME280;53703;50.326;19.122;2023-08-30T12:10:28;97704.19;;;21.42;65.48
66801;BME280;53703;50.326;19.122;2023-08-30T12:13:29;97699.84;;;21.43;65.33
66801;BME280;53703;50.326;19.122;2023-08-30T12:16:23;97705.30;;;21.43;65.54
66801;BME280;53703;50.326;19.122;2023-08-30T12:19:29;97705.55;;;21.46;65.38
66801;BME280;53703;50.326;19.122;2023-08-30T12:22:23;97696.66;;;21.45;65.38
66801;BME280;53703;50.326;19.122;2023-08-30T12:25:21;97694.84;;;21.42;65.41
66801;BME280;53703;50.326;19.122;2023-08-30T12:28:16;97697.38;;;21.38;65.39
66801;BME280;53703;50.326;19.122;2023-08-30T12:31:10;97701.89;;;21.31;65.82
66801;BME280;53703;50.326;19.122;2023-08-30T12:34:04;97698.73;;;21.29;65.62
66801;BME280;53703;50.326;19.122;2023-08-30T12:36:58;97703.23;;;21.21;65.92
66801;BME280;53703;50.326;19.122;2023-08-30T12:39:57;97704.75;;;21.26;65.54
66801;BME280;53703;50.326;19.122;2023-08-30T12:42:52;97702.45;;;21.33;65.28
66801;BME280;53703;50.326;19.122;2023-08-30T12:45:46;97698.65;;;21.42;65.32
66801;BME280;53703;50.326;19.122;2023-08-30T12:48:40;97700.70;;;21.41;65.10
66801;BME280;53703;50.326;19.122;2023-08-30T12:51:34;97700.07;;;21.40;65.05
66801;BME280;53703;50.326;19.122;2023-08-30T12:54:28;97699.99;;;21.41;64.75
66801;BME280;53703;50.326;19.122;2023-08-30T12:57:22;97696.89;;;21.43;64.59
66801;BME280;53703;50.326;19.122;2023-08-30T13:00:17;97701.90;;;21.44;64.64
66801;BME280;53703;50.326;19.122;2023-08-30T13:03:12;97705.23;;;21.43;64.48
66801;BME280;53703;50.326;19.122;2023-08-30T13:06:06;97713.95;;;21.44;64.19
66801;BME280;53703;50.326;19.122;2023-08-30T13:09:00;97717.92;;;21.39;64.44
66801;BME280;53703;50.326;19.122;2023-08-30T13:11:55;97720.45;;;21.40;63.99
66801;BME280;53703;50.326;19.122;2023-08-30T13:14:49;97725.92;;;21.34;64.55
66801;BME280;53703;50.326;19.122;2023-08-30T13:17:43;97728.05;;;21.35;64.45
66801;BME280;53703;50.326;19.122;2023-08-30T13:20:41;97727.27;;;21.33;64.33
66801;BME280;53703;50.326;19.122;2023-08-30T13:23:36;97732.35;;;21.33;63.99
66801;BME280;53703;50.326;19.122;2023-08-30T13:26:29;97729.33;;;21.32;63.72
66801;BME280;53703;50.326;19.122;2023-08-30T13:29:23;97730.91;;;21.31;63.65
66801;BME280;53703;50.326;19.122;2023-08-30T13:32:17;97728.14;;;21.29;64.42
66801;BME280;53703;50.326;19.122;2023-08-30T13:35:11;97728.37;;;21.28;64.33
66801;BME280;53703;50.326;19.122;2023-08-30T13:38:05;97726.39;;;21.31;64.22
66801;BME280;53703;50.326;19.122;2023-08-30T13:41:02;97720.29;;;21.33;63.95
66801;BME280;53703;50.326;19.122;2023-08-30T13:43:57;97716.71;;;21.28;64.35
66801;BME280;53703;50.326;19.122;2023-08-30T13:46:54;97716.48;;;21.29;63.99
66801;BME280;53703;50.326;19.122;2023-08-30T13:49:48;97723.30;;;21.26;64.31
66801;BME280;53703;50.326;19.122;2023-08-30T13:52:42;97727.42;;;21.30;64.18
66801;BME280;53703;50.326;19.122;2023-08-30T13:55:21;97737.88;;;21.25;63.99
66801;BME280;53703;50.326;19.122;2023-08-30T13:58:15;97738.36;;;21.25;63.90
66801;BME280;53703;50.326;19.122;2023-08-30T14:01:09;97739.95;;;21.27;64.03
66801;BME280;53703;50.326;19.122;2023-08-30T14:04:03;97732.80;;;21.25;64.05
66801;BME280;53703;50.326;19.122;2023-08-30T14:06:57;97731.07;;;21.26;64.26
66801;BME280;53703;50.326;19.122;2023-08-30T14:09:51;97730.42;;;21.28;64.06
66801;BME280;53703;50.326;19.122;2023-08-30T14:12:46;97730.27;;;21.26;64.39
66801;BME280;53703;50.326;19.122;2023-08-30T14:15:40;97731.23;;;21.29;64.52
66801;BME280;53703;50.326;19.122;2023-08-30T14:18:34;97728.85;;;21.28;64.33
66801;BME280;53703;50.326;19.122;2023-08-30T14:21:28;97728.84;;;21.25;64.61
66801;BME280;53703;50.326;19.122;2023-08-30T14:24:22;97728.92;;;21.25;64.70
66801;BME280;53703;50.326;19.122;2023-08-30T14:27:16;97727.89;;;21.28;64.68
66801;BME280;53703;50.326;19.122;2023-08-30T14:30:11;97727.81;;;21.22;64.77
66801;BME280;53703;50.326;19.122;2023-08-30T14:33:06;97724.55;;;21.23;64.95
66801;BME280;53703;50.326;19.122;2023-08-30T14:36:00;97719.65;;;21.23;64.96
66801;BME280;53703;50.326;19.122;2023-08-30T14:38:54;97721.70;;;21.18;65.46
66801;BME280;53703;50.326;19.122;2023-08-30T14:41:48;97725.19;;;21.18;65.40
66801;BME280;53703;50.326;19.122;2023-08-30T14:44:42;97725.19;;;21.23;65.03
66801;BME280;53703;50.326;19.122;2023-08-30T14:47:37;97731.30;;;21.23;64.97
66801;BME280;53703;50.326;19.122;2023-08-30T14:50:31;97732.73;;;21.23;64.56
66801;BME280;53703;50.326;19.122;2023-08-30T14:53:25;97737.25;;;21.20;64.62
66801;BME280;53703;50.326;19.122;2023-08-30T14:56:19;97737.40;;;21.19;64.85
66801;BME280;53703;50.326;19.122;2023-08-30T14:59:13;97740.96;;;21.20;64.94
66801;BME280;53703;50.326;19.122;2023-08-30T15:02:07;97741.50;;;21.15;65.40
66801;BME280;53703;50.326;19.122;2023-08-30T15:05:01;97743.65;;;21.16;65.38
66801;BME280;53703;50.326;19.122;2023-08-30T15:07:55;97746.66;;;21.15;65.62
66801;BME280;53703;50.326;19.122;2023-08-30T15:10:49;97752.38;;;21.17;65.65
66801;BME280;53703;50.326;19.122;2023-08-30T15:13:44;97753.48;;;21.15;65.68
66801;BME280;53703;50.326;19.122;2023-08-30T15:16:37;97756.58;;;21.15;65.66
66801;BME280;53703;50.326;19.122;2023-08-30T15:19:31;97754.98;;;21.15;65.75
66801;BME280;53703;50.326;19.122;2023-08-30T15:22:25;97755.05;;;21.13;65.92